Time;durP1;ratioP1;P1;durP2;ratioP2;P2;SDS_P1;SDS_P2;PMS_P1;PMS_P2;Temp;Humidity;BMP_temperature;BMP_pressure;BME280_temperature;BME280_humidity;BME280_pressure;Samples;Min_cycle;Max_cycle;Signal;HPM_P1;HPM_P2
2022/09/28 00:00:22;;;;;;;1.60;1.50;;;;;;;;;;4994761;28;20466;-77
2022/09/28 00:02:50;;;;;;;1.63;1.60;;;;;;;;;;4991372;28;20587;-77
2022/09/28 00:05:17;;;;;;;1.40;1.30;;;;;;;;;;4991535;28;20463;-76
2022/09/28 00:07:46;;;;;;;1.50;1.40;;;;;;;;;;4991733;28;20979;-76
2022/09/28 00:10:13;;;;;;;1.40;1.33;;;;;;;;;;4991300;28;20478;-76
2022/09/28 00:12:40;;;;;;;2.50;1.40;;;;;;;;;;4990878;28;20451;-76
2022/09/28 00:15:08;;;;;;;2.37;1.47;;;;;;;;;;4991321;28;20461;-77
2022/09/28 00:17:35;;;;;;;1.40;1.40;;;;;;;;;;4991233;28;20452;-76
2022/09/28 00:20:04;;;;;;;1.37;1.37;;;;;;;;;;4991266;28;20483;-77
2022/09/28 00:22:31;;;;;;;1.60;1.50;;;;;;;;;;4988011;28;20574;-75
2022/09/28 00:24:59;;;;;;;1.50;1.50;;;;;;;;;;4990061;28;20448;-76
2022/09/28 00:27:26;;;;;;;1.80;1.70;;;;;;;;;;4990834;28;20615;-76
2022/09/28 00:29:53;;;;;;;1.60;1.50;;;;;;;;;;4985213;28;20482;-77
2022/09/28 00:32:23;;;;;;;1.93;1.70;;;;;;;;;;4993653;28;20452;-76
2022/09/28 00:34:51;;;;;;;1.83;1.73;;;;;;;;;;4999054;28;20458;-76
2022/09/28 00:37:19;;;;;;;1.77;1.67;;;;;;;;;;4998047;28;20558;-77
2022/09/28 00:39:46;;;;;;;1.20;1.20;;;;;;;;;;4996287;28;20457;-76
2022/09/28 00:42:16;;;;;;;1.10;1.10;;;;;;;;;;4990720;28;21085;-75
2022/09/28 00:44:46;;;;;;;1.60;1.50;;;;;;;;;;4990221;28;20967;-76
2022/09/28 00:47:19;;;;;;;1.73;1.30;;;;;;;;;;4986577;28;20448;-76
2022/09/28 00:49:49;;;;;;;1.70;1.50;;;;;;;;;;4975066;28;20472;-76
2022/09/28 00:52:19;;;;;;;2.60;1.50;;;;;;;;;;4984755;28;20441;-77
2022/09/28 00:54:48;;;;;;;1.20;1.20;;;;;;;;;;4984913;28;20451;-76
2022/09/28 00:57:16;;;;;;;1.63;1.33;;;;;;;;;;4985067;28;20453;-77
2022/09/28 00:59:44;;;;;;;1.20;1.20;;;;;;;;;;4989510;28;20542;-76
2022/09/28 01:02:11;;;;;;;1.20;1.20;;;;;;;;;;4971324;28;20484;-76
2022/09/28 01:04:39;;;;;;;1.30;1.30;;;;;;;;;;4970760;28;20884;-76
2022/09/28 01:07:06;;;;;;;1.53;1.43;;;;;;;;;;4971202;28;20519;-76
2022/09/28 01:09:33;;;;;;;1.70;1.60;;;;;;;;;;4970732;28;20465;-75
2022/09/28 01:12:00;;;;;;;1.60;1.50;;;;;;;;;;4982024;28;20475;-76
2022/09/28 01:14:29;;;;;;;3.23;1.23;;;;;;;;;;4990251;28;20499;-76
2022/09/28 01:16:59;;;;;;;1.13;1.13;;;;;;;;;;4990997;28;20456;-76
2022/09/28 01:19:44;;;;;;;1.20;1.10;;;;;;;;;;4990305;28;20498;-76
2022/09/28 01:22:17;;;;;;;2.20;1.60;;;;;;;;;;4990430;28;20834;-77
2022/09/28 01:24:46;;;;;;;1.33;1.23;;;;;;;;;;4990085;28;20459;-76
2022/09/28 01:27:16;;;;;;;1.10;1.10;;;;;;;;;;4990444;28;20522;-75
2022/09/28 01:29:46;;;;;;;1.40;1.30;;;;;;;;;;4991438;28;20460;-76
2022/09/28 01:32:18;;;;;;;1.50;1.20;;;;;;;;;;4992300;28;20571;-76
2022/09/28 01:34:48;;;;;;;1.30;1.27;;;;;;;;;;4989531;28;20462;-76
2022/09/28 01:37:17;;;;;;;1.20;1.10;;;;;;;;;;4983834;28;20948;-76
2022/09/28 01:39:46;;;;;;;2.77;1.40;;;;;;;;;;4977860;28;20511;-76
2022/09/28 01:42:17;;;;;;;1.20;1.20;;;;;;;;;;4991310;28;20487;-75
2022/09/28 01:44:48;;;;;;;1.30;1.30;;;;;;;;;;4989944;28;20535;-76
2022/09/28 01:47:18;;;;;;;2.13;1.70;;;;;;;;;;4990355;28;20852;-77
2022/09/28 01:49:46;;;;;;;1.90;1.57;;;;;;;;;;4990215;28;20534;-77
2022/09/28 01:52:16;;;;;;;2.40;1.40;;;;;;;;;;4990261;28;20454;-76
2022/09/28 01:54:45;;;;;;;5.43;1.37;;;;;;;;;;4988889;28;20444;-77
2022/09/28 01:57:14;;;;;;;1.40;1.30;;;;;;;;;;4990045;28;20440;-76
2022/09/28 01:59:42;;;;;;;2.60;1.57;;;;;;;;;;4990243;28;20479;-77
2022/09/28 02:02:13;;;;;;;1.60;1.40;;;;;;;;;;4989843;28;20948;-75
2022/09/28 02:04:43;;;;;;;1.60;1.50;;;;;;;;;;4987675;28;20448;-77
2022/09/28 02:07:12;;;;;;;3.30;1.33;;;;;;;;;;4983145;28;20486;-77
2022/09/28 02:09:42;;;;;;;3.90;1.43;;;;;;;;;;4989849;28;20464;-77
2022/09/28 02:12:11;;;;;;;2.93;1.23;;;;;;;;;;4989981;28;20436;-76
2022/09/28 02:14:40;;;;;;;3.80;1.40;;;;;;;;;;4991380;28;20448;-77
2022/09/28 02:17:07;;;;;;;2.37;1.23;;;;;;;;;;4993460;28;20530;-77
2022/09/28 02:19:36;;;;;;;1.33;1.30;;;;;;;;;;4993191;28;20491;-77
2022/09/28 02:22:05;;;;;;;1.30;1.10;;;;;;;;;;4993220;28;20518;-76
2022/09/28 02:24:35;;;;;;;1.70;1.53;;;;;;;;;;4992692;28;20461;-76
2022/09/28 02:27:04;;;;;;;4.20;1.50;;;;;;;;;;4993297;28;20802;-77
2022/09/28 02:29:31;;;;;;;3.17;1.70;;;;;;;;;;4992845;28;20984;-76
2022/09/28 02:31:58;;;;;;;4.03;1.47;;;;;;;;;;4993534;28;20829;-77
2022/09/28 02:34:25;;;;;;;2.30;1.17;;;;;;;;;;4992831;28;20864;-77
2022/09/28 02:36:54;;;;;;;3.30;1.53;;;;;;;;;;4992771;28;20857;-77
2022/09/28 02:39:21;;;;;;;2.20;1.50;;;;;;;;;;4993200;28;20464;-77
2022/09/28 02:41:52;;;;;;;3.50;1.73;;;;;;;;;;4993038;28;20828;-76
2022/09/28 02:44:28;;;;;;;4.63;1.43;;;;;;;;;;4992181;28;20616;-76
2022/09/28 02:46:58;;;;;;;4.67;1.73;;;;;;;;;;4993304;28;20435;-76
2022/09/28 02:49:30;;;;;;;1.90;1.50;;;;;;;;;;4992787;28;20468;-76
2022/09/28 02:52:05;;;;;;;2.30;1.60;;;;;;;;;;4993072;28;20506;-76
2022/09/28 02:54:52;;;;;;;4.23;1.90;;;;;;;;;;4992533;28;20455;-77
2022/09/28 02:57:24;;;;;;;1.80;1.30;;;;;;;;;;5014638;28;20448;-75
2022/09/28 02:59:56;;;;;;;4.90;2.07;;;;;;;;;;5014371;28;20542;-75
2022/09/28 03:02:26;;;;;;;3.30;1.57;;;;;;;;;;5013297;28;20519;-76
2022/09/28 03:05:01;;;;;;;2.27;1.93;;;;;;;;;;5011128;28;20440;-76
2022/09/28 03:07:33;;;;;;;3.90;1.90;;;;;;;;;;4999714;28;20459;-76
2022/09/28 03:10:04;;;;;;;5.23;1.63;;;;;;;;;;4995346;28;20464;-75
2022/09/28 03:12:32;;;;;;;4.60;1.80;;;;;;;;;;4992814;28;20444;-75
2022/09/28 03:15:10;;;;;;;3.40;1.80;;;;;;;;;;4993110;28;20456;-77
2022/09/28 03:17:37;;;;;;;2.97;1.60;;;;;;;;;;4983468;28;20487;-75
2022/09/28 03:20:04;;;;;;;1.77;1.40;;;;;;;;;;4983807;28;20472;-77
2022/09/28 03:22:33;;;;;;;4.30;2.57;;;;;;;;;;4983960;28;20441;-75
2022/09/28 03:25:00;;;;;;;1.60;1.50;;;;;;;;;;4991398;28;20522;-76
2022/09/28 03:27:27;;;;;;;1.63;1.53;;;;;;;;;;4992050;28;20456;-76
2022/09/28 03:29:54;;;;;;;2.50;1.63;;;;;;;;;;4992580;28;20563;-77
2022/09/28 03:32:21;;;;;;;2.10;1.90;;;;;;;;;;4992054;28;20444;-76
2022/09/28 03:34:48;;;;;;;2.80;1.30;;;;;;;;;;4991505;28;20444;-77
2022/09/28 03:37:15;;;;;;;5.07;1.43;;;;;;;;;;4992130;28;20459;-76
2022/09/28 03:39:43;;;;;;;1.50;1.40;;;;;;;;;;4991852;28;21023;-77
2022/09/28 03:42:10;;;;;;;3.40;1.70;;;;;;;;;;4992444;28;20444;-77
2022/09/28 03:44:37;;;;;;;3.80;1.70;;;;;;;;;;4992588;28;20487;-76
2022/09/28 03:47:04;;;;;;;3.93;1.70;;;;;;;;;;4992149;28;20444;-75
2022/09/28 03:49:31;;;;;;;2.67;2.07;;;;;;;;;;4991991;28;20468;-77
2022/09/28 03:51:58;;;;;;;5.57;2.70;;;;;;;;;;4992357;28;20452;-76
2022/09/28 03:54:25;;;;;;;2.60;1.90;;;;;;;;;;4991212;28;20494;-75
2022/09/28 03:56:54;;;;;;;2.73;1.80;;;;;;;;;;4989883;28;20444;-76
2022/09/28 03:59:21;;;;;;;1.90;1.80;;;;;;;;;;4984891;28;20497;-75
2022/09/28 04:01:49;;;;;;;2.43;1.60;;;;;;;;;;4992217;28;20444;-75
2022/09/28 04:04:16;;;;;;;3.03;1.70;;;;;;;;;;4991299;28;20534;-74
2022/09/28 04:06:43;;;;;;;1.23;1.00;;;;;;;;;;4985407;28;20459;-75
2022/09/28 04:09:11;;;;;;;2.73;1.37;;;;;;;;;;4991482;28;20477;-75
2022/09/28 04:11:38;;;;;;;2.30;1.50;;;;;;;;;;4989199;28;20845;-75
2022/09/28 04:14:06;;;;;;;0.83;0.83;;;;;;;;;;4985328;28;20455;-74
2022/09/28 04:16:33;;;;;;;1.03;1.03;;;;;;;;;;4992874;28;20455;-75
2022/09/28 04:19:01;;;;;;;2.47;1.03;;;;;;;;;;4991078;28;20524;-77
2022/09/28 04:21:29;;;;;;;1.07;1.07;;;;;;;;;;4991360;28;20452;-75
2022/09/28 04:23:56;;;;;;;1.30;1.00;;;;;;;;;;4990446;28;20541;-75
2022/09/28 04:26:25;;;;;;;1.63;1.13;;;;;;;;;;4991255;28;21204;-76
2022/09/28 04:31:42;;;;;;;1.10;1.10;;;;;;;;;;4989022;28;20432;-75
2022/09/28 04:34:09;;;;;;;3.47;1.63;;;;;;;;;;4981282;28;20531;-76
2022/09/28 04:36:37;;;;;;;2.93;1.00;;;;;;;;;;4988914;28;20967;-75
2022/09/28 04:39:05;;;;;;;2.03;1.67;;;;;;;;;;4982790;28;20464;-76
2022/09/28 04:41:32;;;;;;;2.73;1.70;;;;;;;;;;4991099;28;20491;-76
2022/09/28 04:43:59;;;;;;;1.60;1.03;;;;;;;;;;4990188;28;20479;-75
2022/09/28 04:46:26;;;;;;;1.30;1.00;;;;;;;;;;4991291;28;20463;-75
2022/09/28 04:48:54;;;;;;;1.93;0.80;;;;;;;;;;4990702;28;20979;-75
2022/09/28 04:51:21;;;;;;;4.60;1.33;;;;;;;;;;4990826;28;20452;-75
2022/09/28 04:53:48;;;;;;;2.63;1.90;;;;;;;;;;4990242;28;20443;-76
2022/09/28 04:56:16;;;;;;;1.37;1.13;;;;;;;;;;4990314;28;20511;-75
2022/09/28 04:58:43;;;;;;;3.60;1.20;;;;;;;;;;4990626;28;20463;-75
2022/09/28 05:01:12;;;;;;;1.10;1.10;;;;;;;;;;4991011;28;20947;-75
2022/09/28 05:03:39;;;;;;;1.47;1.17;;;;;;;;;;4998324;28;20483;-74
2022/09/28 05:06:08;;;;;;;1.10;1.07;;;;;;;;;;4998924;28;20593;-76
2022/09/28 05:08:35;;;;;;;2.50;1.50;;;;;;;;;;4990716;28;20522;-75
2022/09/28 05:11:03;;;;;;;2.00;1.00;;;;;;;;;;5000404;28;20858;-75
2022/09/28 05:13:31;;;;;;;0.97;0.87;;;;;;;;;;4988833;28;20467;-75
2022/09/28 05:15:58;;;;;;;1.30;1.20;;;;;;;;;;4984346;28;20539;-75
2022/09/28 05:18:25;;;;;;;1.13;1.10;;;;;;;;;;4990727;28;20456;-75
2022/09/28 05:20:53;;;;;;;2.37;1.10;;;;;;;;;;4990600;28;20455;-76
2022/09/28 05:23:21;;;;;;;1.30;1.20;;;;;;;;;;4989872;28;20487;-75
2022/09/28 05:25:48;;;;;;;2.20;1.70;;;;;;;;;;4990161;28;20451;-75
2022/09/28 05:28:15;;;;;;;4.00;1.37;;;;;;;;;;4990304;28;20444;-75
2022/09/28 05:30:42;;;;;;;1.20;1.10;;;;;;;;;;4990239;28;20505;-75
2022/09/28 05:33:09;;;;;;;3.93;3.53;;;;;;;;;;4989521;28;20459;-74
2022/09/28 05:35:36;;;;;;;1.90;1.80;;;;;;;;;;4990619;28;20448;-75
2022/09/28 05:38:04;;;;;;;2.20;1.53;;;;;;;;;;4991610;28;20952;-75
2022/09/28 05:40:33;;;;;;;1.37;1.37;;;;;;;;;;4991296;28;20466;-75
2022/09/28 05:43:03;;;;;;;3.67;1.97;;;;;;;;;;4989800;28;20459;-75
2022/09/28 05:45:30;;;;;;;3.23;2.60;;;;;;;;;;4990323;28;20901;-75
2022/09/28 05:50:38;;;;;;;1.47;1.37;;;;;;;;;;4993087;28;20510;-75
2022/09/28 05:53:06;;;;;;;2.47;1.50;;;;;;;;;;4993125;28;20463;-76
2022/09/28 05:55:35;;;;;;;2.97;1.60;;;;;;;;;;4993978;28;20456;-75
2022/09/28 05:58:03;;;;;;;1.40;1.27;;;;;;;;;;4994317;28;20440;-76
2022/09/28 06:00:30;;;;;;;2.60;1.77;;;;;;;;;;4994648;28;20559;-74
2022/09/28 06:02:58;;;;;;;2.30;1.47;;;;;;;;;;4996167;28;20841;-75
2022/09/28 06:05:26;;;;;;;3.70;1.30;;;;;;;;;;4998352;28;20563;-74
2022/09/28 06:07:53;;;;;;;2.80;1.23;;;;;;;;;;4999475;28;20432;-75
2022/09/28 06:10:20;;;;;;;1.80;1.70;;;;;;;;;;4996884;28;20472;-74
2022/09/28 06:12:52;;;;;;;3.07;1.43;;;;;;;;;;4999930;28;20453;-75
2022/09/28 06:15:19;;;;;;;2.13;1.50;;;;;;;;;;4995397;28;20961;-74
2022/09/28 06:17:46;;;;;;;1.97;1.77;;;;;;;;;;4995568;28;20444;-75
2022/09/28 06:20:14;;;;;;;1.53;1.30;;;;;;;;;;5001375;28;20526;-74
2022/09/28 06:22:41;;;;;;;4.63;1.63;;;;;;;;;;5015949;28;20459;-74
2022/09/28 06:25:08;;;;;;;2.33;1.70;;;;;;;;;;5017688;28;20467;-73
2022/09/28 06:27:36;;;;;;;3.30;1.63;;;;;;;;;;5019221;28;20519;-75
2022/09/28 06:30:04;;;;;;;1.80;1.70;;;;;;;;;;5017824;28;20483;-74
2022/09/28 06:32:31;;;;;;;1.90;1.80;;;;;;;;;;5000315;28;20440;-74
2022/09/28 06:34:58;;;;;;;4.50;2.10;;;;;;;;;;4997260;28;20438;-74
2022/09/28 06:37:26;;;;;;;2.00;1.90;;;;;;;;;;5016286;28;20459;-75
2022/09/28 06:39:54;;;;;;;2.43;1.40;;;;;;;;;;5018302;28;20478;-75
2022/09/28 06:42:21;;;;;;;2.90;1.80;;;;;;;;;;5014659;28;20462;-74
2022/09/28 06:44:49;;;;;;;1.60;1.50;;;;;;;;;;4988661;28;21019;-75
2022/09/28 06:47:17;;;;;;;1.70;1.60;;;;;;;;;;4998044;28;20450;-76
2022/09/28 06:49:46;;;;;;;2.33;1.83;;;;;;;;;;4994647;28;20851;-75
2022/09/28 06:52:13;;;;;;;1.97;1.53;;;;;;;;;;4995092;28;20452;-76
2022/09/28 06:54:40;;;;;;;3.20;1.80;;;;;;;;;;4993342;28;20805;-75
2022/09/28 06:57:07;;;;;;;3.40;1.93;;;;;;;;;;4994561;28;20527;-74
2022/09/28 06:59:34;;;;;;;2.93;1.87;;;;;;;;;;4994232;28;20513;-76
2022/09/28 07:02:01;;;;;;;2.50;1.90;;;;;;;;;;4994871;28;20452;-76
2022/09/28 07:04:30;;;;;;;1.93;1.70;;;;;;;;;;4993834;28;20480;-75
2022/09/28 07:06:58;;;;;;;3.80;2.20;;;;;;;;;;4993547;28;20543;-75
2022/09/28 07:09:25;;;;;;;2.00;1.80;;;;;;;;;;4993183;28;20481;-76
2022/09/28 07:11:52;;;;;;;3.70;2.53;;;;;;;;;;4993417;28;20540;-75
2022/09/28 07:14:23;;;;;;;2.50;2.30;;;;;;;;;;4992517;28;20824;-74
2022/09/28 07:16:50;;;;;;;4.63;2.53;;;;;;;;;;4993489;28;20513;-76
2022/09/28 07:19:17;;;;;;;4.73;3.00;;;;;;;;;;4993116;28;20660;-75
2022/09/28 07:21:46;;;;;;;2.03;1.93;;;;;;;;;;4992897;28;20516;-75
2022/09/28 07:24:13;;;;;;;4.80;3.23;;;;;;;;;;4992293;28;20907;-76
2022/09/28 07:26:40;;;;;;;3.40;2.20;;;;;;;;;;4992716;28;20794;-76
2022/09/28 07:29:07;;;;;;;3.47;2.70;;;;;;;;;;4992720;28;20468;-75
2022/09/28 07:31:34;;;;;;;3.57;3.27;;;;;;;;;;4992347;28;20459;-75
2022/09/28 07:34:01;;;;;;;5.80;2.97;;;;;;;;;;4992125;28;20483;-76
2022/09/28 07:36:29;;;;;;;3.83;2.80;;;;;;;;;;4992737;28;20440;-75
2022/09/28 07:38:57;;;;;;;3.33;2.73;;;;;;;;;;4991973;28;20550;-76
2022/09/28 07:41:31;;;;;;;5.40;3.23;;;;;;;;;;4992284;28;20936;-76
2022/09/28 07:44:04;;;;;;;5.20;2.80;;;;;;;;;;4991013;28;20566;-77
2022/09/28 07:46:31;;;;;;;2.90;2.70;;;;;;;;;;4992198;28;20784;-76
2022/09/28 07:48:59;;;;;;;3.53;2.63;;;;;;;;;;4992652;28;20864;-76
2022/09/28 07:51:26;;;;;;;3.30;2.93;;;;;;;;;;4992989;28;20563;-76
2022/09/28 07:53:53;;;;;;;3.40;2.40;;;;;;;;;;4992894;28;20448;-76
2022/09/28 07:56:22;;;;;;;6.40;3.20;;;;;;;;;;4993624;28;20542;-76
2022/09/28 07:58:49;;;;;;;2.60;2.40;;;;;;;;;;4993957;28;20471;-76
2022/09/28 08:01:17;;;;;;;4.33;3.03;;;;;;;;;;4993218;28;20444;-75
2022/09/28 08:03:45;;;;;;;7.03;2.80;;;;;;;;;;4990488;28;20444;-76
2022/09/28 08:06:13;;;;;;;5.30;2.93;;;;;;;;;;4985193;28;20951;-75
2022/09/28 08:08:42;;;;;;;5.50;2.70;;;;;;;;;;4975921;28;20481;-75
2022/09/28 08:11:10;;;;;;;6.47;3.03;;;;;;;;;;4990891;28;20495;-75
2022/09/28 08:13:38;;;;;;;2.97;2.77;;;;;;;;;;4990966;28;20490;-75
2022/09/28 08:16:07;;;;;;;4.10;3.77;;;;;;;;;;4991799;28;20580;-75
2022/09/28 08:18:34;;;;;;;5.30;3.40;;;;;;;;;;4983795;28;20462;-75
2022/09/28 08:23:46;;;;;;;4.10;3.40;;;;;;;;;;4991149;28;20904;-77
2022/09/28 08:26:13;;;;;;;4.40;2.70;;;;;;;;;;4991523;28;20982;-77
2022/09/28 08:28:42;;;;;;;5.27;2.70;;;;;;;;;;4991356;28;20885;-75
2022/09/28 08:31:09;;;;;;;3.13;2.90;;;;;;;;;;4991225;28;20452;-75
2022/09/28 08:33:36;;;;;;;2.63;2.43;;;;;;;;;;4990853;28;20460;-75
2022/09/28 08:36:04;;;;;;;3.60;3.17;;;;;;;;;;4994846;28;20448;-75
2022/09/28 08:38:32;;;;;;;2.60;2.13;;;;;;;;;;4992934;28;20475;-75
2022/09/28 08:41:04;;;;;;;4.77;2.30;;;;;;;;;;4992271;28;20531;-76
2022/09/28 08:43:42;;;;;;;2.80;2.60;;;;;;;;;;4993429;28;20475;-76
2022/09/28 08:46:11;;;;;;;3.40;3.10;;;;;;;;;;4995428;28;20542;-76
2022/09/28 08:48:43;;;;;;;3.30;3.00;;;;;;;;;;4991143;28;20497;-76
2022/09/28 08:51:14;;;;;;;2.93;2.73;;;;;;;;;;4987192;28;20440;-76
2022/09/28 08:53:43;;;;;;;5.20;3.07;;;;;;;;;;4974741;28;20445;-76
2022/09/28 08:56:13;;;;;;;3.27;2.97;;;;;;;;;;4989997;28;20536;-75
2022/09/28 08:58:41;;;;;;;2.73;2.53;;;;;;;;;;4983066;28;20463;-76
2022/09/28 09:01:15;;;;;;;5.83;3.20;;;;;;;;;;4991006;28;20484;-76
2022/09/28 09:03:44;;;;;;;3.60;2.40;;;;;;;;;;4990518;28;20447;-76
2022/09/28 09:06:17;;;;;;;4.40;2.50;;;;;;;;;;4990568;28;20900;-76
2022/09/28 09:08:50;;;;;;;2.93;2.67;;;;;;;;;;4990807;28;20937;-77
2022/09/28 09:11:23;;;;;;;3.00;2.70;;;;;;;;;;4990930;28;20448;-76
2022/09/28 09:13:59;;;;;;;2.77;2.57;;;;;;;;;;4990720;28;20443;-75
2022/09/28 09:16:35;;;;;;;2.60;2.40;;;;;;;;;;4990608;28;20819;-76
2022/09/28 09:19:09;;;;;;;2.67;2.47;;;;;;;;;;4990938;28;20862;-76
2022/09/28 09:21:40;;;;;;;2.50;2.30;;;;;;;;;;4990998;28;20470;-76
2022/09/28 09:24:15;;;;;;;3.17;2.57;;;;;;;;;;4992973;28;20459;-77
2022/09/28 09:26:43;;;;;;;7.00;3.00;;;;;;;;;;4989431;28;20431;-75
2022/09/28 09:29:17;;;;;;;5.40;2.60;;;;;;;;;;4987685;28;20467;-77
2022/09/28 09:31:53;;;;;;;5.20;2.90;;;;;;;;;;4994605;28;20444;-76
2022/09/28 09:34:30;;;;;;;4.30;2.37;;;;;;;;;;4994442;28;20452;-75
2022/09/28 09:37:04;;;;;;;4.50;2.33;;;;;;;;;;4995112;28;20428;-77
2022/09/28 09:39:38;;;;;;;5.63;2.20;;;;;;;;;;4994719;28;20467;-76
2022/09/28 09:42:11;;;;;;;4.10;2.60;;;;;;;;;;4995127;28;20428;-75
2022/09/28 09:44:45;;;;;;;2.47;2.27;;;;;;;;;;4994056;28;20848;-76
2022/09/28 09:47:16;;;;;;;4.30;2.60;;;;;;;;;;4994119;28;20927;-77
2022/09/28 09:49:46;;;;;;;5.00;2.50;;;;;;;;;;4994517;28;20472;-76
2022/09/28 09:52:15;;;;;;;2.40;2.20;;;;;;;;;;4994676;28;20456;-77
2022/09/28 09:54:45;;;;;;;3.93;2.90;;;;;;;;;;4995035;28;20478;-75
2022/09/28 09:57:13;;;;;;;2.60;2.40;;;;;;;;;;4994552;28;20482;-77
2022/09/28 09:59:43;;;;;;;3.13;2.83;;;;;;;;;;4994245;28;20523;-76
2022/09/28 10:02:19;;;;;;;5.47;2.73;;;;;;;;;;4994653;28;20831;-77
2022/09/28 10:04:49;;;;;;;3.83;2.63;;;;;;;;;;4994486;28;20464;-78
2022/09/28 10:07:19;;;;;;;4.73;2.50;;;;;;;;;;4994939;28;20449;-76
2022/09/28 10:09:47;;;;;;;3.57;2.60;;;;;;;;;;4986359;28;20460;-76
2022/09/28 10:12:15;;;;;;;3.47;2.63;;;;;;;;;;4990112;28;20460;-75
2022/09/28 10:14:42;;;;;;;4.97;2.97;;;;;;;;;;4995084;28;20456;-76
2022/09/28 10:17:11;;;;;;;3.20;2.63;;;;;;;;;;4995778;28;20459;-76
2022/09/28 10:19:38;;;;;;;3.77;3.30;;;;;;;;;;4995530;28;20510;-76
2022/09/28 10:22:06;;;;;;;3.97;2.60;;;;;;;;;;4995297;28;20476;-78
2022/09/28 10:24:36;;;;;;;3.43;2.80;;;;;;;;;;4994525;28;20448;-76
2022/09/28 10:27:07;;;;;;;5.20;2.80;;;;;;;;;;4995642;28;20477;-76
2022/09/28 10:29:52;;;;;;;2.70;2.50;;;;;;;;;;4995079;28;21042;-75
2022/09/28 10:32:20;;;;;;;4.70;3.40;;;;;;;;;;5000044;28;20440;-76
2022/09/28 10:34:47;;;;;;;3.77;2.70;;;;;;;;;;4995387;28;20448;-76
2022/09/28 10:37:16;;;;;;;3.17;2.93;;;;;;;;;;4988333;28;20445;-76
2022/09/28 10:39:46;;;;;;;4.40;2.70;;;;;;;;;;4989197;28;20463;-76
2022/09/28 10:42:18;;;;;;;3.43;2.60;;;;;;;;;;4998613;28;20928;-76
2022/09/28 10:44:50;;;;;;;3.57;2.60;;;;;;;;;;5002955;28;20565;-75
2022/09/28 10:47:19;;;;;;;2.40;2.20;;;;;;;;;;4997206;28;20955;-77
2022/09/28 10:49:49;;;;;;;5.10;2.80;;;;;;;;;;4990264;28;20465;-76
2022/09/28 10:52:34;;;;;;;3.00;2.37;;;;;;;;;;4993848;28;20515;-75
2022/09/28 10:55:01;;;;;;;3.80;2.80;;;;;;;;;;4994392;28;20444;-77
2022/09/28 10:57:29;;;;;;;3.77;2.10;;;;;;;;;;4996163;28;20460;-76
2022/09/28 10:59:56;;;;;;;3.60;2.50;;;;;;;;;;4994334;28;21029;-76
2022/09/28 11:02:25;;;;;;;3.43;2.50;;;;;;;;;;4997453;28;20436;-76
2022/09/28 11:04:53;;;;;;;2.87;2.23;;;;;;;;;;5014235;28;20440;-75
2022/09/28 11:07:22;;;;;;;2.23;2.13;;;;;;;;;;4997592;28;20508;-75
2022/09/28 11:09:51;;;;;;;3.50;2.33;;;;;;;;;;5001790;28;20480;-74
2022/09/28 11:12:20;;;;;;;2.77;2.17;;;;;;;;;;5000195;28;20448;-75
2022/09/28 11:14:51;;;;;;;2.47;2.30;;;;;;;;;;4995914;28;20502;-75
2022/09/28 11:17:24;;;;;;;2.57;2.37;;;;;;;;;;4995415;28;20440;-76
2022/09/28 11:19:52;;;;;;;3.37;2.30;;;;;;;;;;4991805;28;20464;-76
2022/09/28 11:22:25;;;;;;;5.93;2.77;;;;;;;;;;4992341;28;20539;-77
2022/09/28 11:25:12;;;;;;;3.37;2.30;;;;;;;;;;4991392;28;20448;-76
2022/09/28 11:27:39;;;;;;;2.47;2.23;;;;;;;;;;4987261;28;20444;-76
2022/09/28 11:30:21;;;;;;;3.80;2.60;;;;;;;;;;4983725;28;20472;-77
2022/09/28 11:32:48;;;;;;;4.60;2.20;;;;;;;;;;4992128;28;20455;-75
2022/09/28 11:35:18;;;;;;;4.73;1.80;;;;;;;;;;4992771;28;20523;-78
2022/09/28 11:37:52;;;;;;;3.90;2.60;;;;;;;;;;4984725;28;20453;-77
2022/09/28 11:40:31;;;;;;;5.80;2.37;;;;;;;;;;4993611;28;20527;-76
2022/09/28 11:43:03;;;;;;;6.60;2.90;;;;;;;;;;4992296;28;20436;-76
2022/09/28 11:45:41;;;;;;;3.27;2.33;;;;;;;;;;4992588;28;20480;-76
2022/09/28 11:48:09;;;;;;;3.10;2.30;;;;;;;;;;4993018;28;20519;-76
2022/09/28 11:50:43;;;;;;;4.63;2.07;;;;;;;;;;4992534;28;20552;-76
2022/09/28 11:53:14;;;;;;;2.03;1.67;;;;;;;;;;4991501;28;20528;-76
2022/09/28 11:55:43;;;;;;;2.33;2.03;;;;;;;;;;4991516;28;20527;-78
2022/09/28 11:58:13;;;;;;;2.33;1.90;;;;;;;;;;4992147;28;20504;-78
2022/09/28 12:00:44;;;;;;;6.30;2.17;;;;;;;;;;4991995;28;20464;-76
2022/09/28 12:03:14;;;;;;;3.13;2.00;;;;;;;;;;4991371;28;20436;-78
2022/09/28 12:05:42;;;;;;;3.70;2.30;;;;;;;;;;4991737;28;21007;-78
2022/09/28 12:08:20;;;;;;;3.40;1.87;;;;;;;;;;5088192;28;20518;-77
2022/09/28 12:10:50;;;;;;;3.20;1.73;;;;;;;;;;5067655;28;20809;-76
2022/09/28 12:13:21;;;;;;;1.90;1.70;;;;;;;;;;5067443;28;20475;-77
2022/09/28 12:15:50;;;;;;;3.27;1.80;;;;;;;;;;5067935;28;20853;-77
2022/09/28 12:18:19;;;;;;;2.60;2.10;;;;;;;;;;5068878;28;20487;-76
2022/09/28 12:20:48;;;;;;;3.57;1.80;;;;;;;;;;5067670;28;20940;-76
2022/09/28 12:23:17;;;;;;;1.80;1.63;;;;;;;;;;5067063;28;20541;-76
2022/09/28 12:25:48;;;;;;;1.80;1.70;;;;;;;;;;5067135;28;20991;-76
2022/09/28 12:28:19;;;;;;;1.60;1.50;;;;;;;;;;5067438;28;20526;-75
2022/09/28 12:30:47;;;;;;;2.10;1.80;;;;;;;;;;5066729;28;20445;-75
2022/09/28 12:33:15;;;;;;;2.93;1.73;;;;;;;;;;5066737;28;20444;-76
2022/09/28 12:35:52;;;;;;;4.07;1.80;;;;;;;;;;5067204;28;20475;-76
2022/09/28 12:38:28;;;;;;;2.20;1.73;;;;;;;;;;5066956;28;20852;-76
2022/09/28 12:41:00;;;;;;;2.50;1.67;;;;;;;;;;5066685;28;20510;-76
2022/09/28 12:43:34;;;;;;;1.90;1.50;;;;;;;;;;5066453;28;20475;-75
2022/09/28 12:46:14;;;;;;;2.70;1.70;;;;;;;;;;5067490;28;20448;-77
2022/09/28 12:48:59;;;;;;;2.10;1.30;;;;;;;;;;5068631;28;20496;-76
2022/09/28 12:51:33;;;;;;;1.33;1.23;;;;;;;;;;5066717;28;20459;-75
2022/09/28 12:54:03;;;;;;;1.43;1.33;;;;;;;;;;5066560;28;20875;-75
2022/09/28 12:56:37;;;;;;;1.73;1.50;;;;;;;;;;5066821;28;20453;-76
2022/09/28 12:59:09;;;;;;;1.70;1.30;;;;;;;;;;5067258;28;20459;-75
2022/09/28 13:01:43;;;;;;;2.00;1.30;;;;;;;;;;5067287;28;20445;-76
2022/09/28 13:04:19;;;;;;;5.30;1.47;;;;;;;;;;5065950;28;20443;-75
2022/09/28 13:06:52;;;;;;;2.20;1.30;;;;;;;;;;5068563;28;20496;-76
2022/09/28 13:09:21;;;;;;;1.90;1.40;;;;;;;;;;5068092;28;20761;-77
2022/09/28 13:11:53;;;;;;;2.07;1.13;;;;;;;;;;5057974;28;20469;-75
2022/09/28 13:14:30;;;;;;;1.80;1.30;;;;;;;;;;5046189;28;20457;-76
2022/09/28 13:17:01;;;;;;;1.43;1.33;;;;;;;;;;5047181;28;20449;-75
2022/09/28 13:19:33;;;;;;;4.23;1.53;;;;;;;;;;5034561;28;20540;-75
2022/09/28 13:22:05;;;;;;;3.10;1.37;;;;;;;;;;5033984;28;20473;-75
2022/09/28 13:24:35;;;;;;;3.33;1.13;;;;;;;;;;5032904;28;20508;-77
2022/09/28 13:27:10;;;;;;;2.53;1.47;;;;;;;;;;5033444;28;20478;-77
2022/09/28 13:29:38;;;;;;;1.27;1.10;;;;;;;;;;5033574;28;20788;-79
2022/09/28 13:32:05;;;;;;;2.00;1.50;;;;;;;;;;5033449;28;20565;-77
2022/09/28 13:34:34;;;;;;;2.73;1.60;;;;;;;;;;5033052;28;21021;-76
2022/09/28 13:37:19;;;;;;;2.30;1.50;;;;;;;;;;5033912;28;20956;-77
2022/09/28 13:39:55;;;;;;;2.40;1.40;;;;;;;;;;5034097;28;20527;-77
2022/09/28 13:42:40;;;;;;;3.13;1.53;;;;;;;;;;5033225;28;20521;-77
2022/09/28 13:45:26;;;;;;;1.23;1.13;;;;;;;;;;5025974;28;20446;-76
2022/09/28 13:47:59;;;;;;;1.37;1.20;;;;;;;;;;5032418;28;20482;-76
2022/09/28 13:50:33;;;;;;;1.90;1.23;;;;;;;;;;5033403;28;20463;-76
2022/09/28 13:53:04;;;;;;;1.40;1.30;;;;;;;;;;5033077;28;20473;-77
2022/09/28 13:55:34;;;;;;;3.73;1.73;;;;;;;;;;5034048;28;20996;-77
2022/09/28 13:58:04;;;;;;;2.03;1.40;;;;;;;;;;5033536;28;20438;-78
2022/09/28 14:00:35;;;;;;;2.77;1.60;;;;;;;;;;5034303;28;20545;-77
2022/09/28 14:03:13;;;;;;;2.70;2.03;;;;;;;;;;5033975;28;20443;-77
2022/09/28 14:05:48;;;;;;;1.90;1.80;;;;;;;;;;5033761;28;20550;-77
2022/09/28 14:08:27;;;;;;;2.83;1.30;;;;;;;;;;5032441;28;20912;-77
2022/09/28 14:10:55;;;;;;;1.97;1.43;;;;;;;;;;5033767;28;20438;-77
2022/09/28 14:13:40;;;;;;;1.50;1.27;;;;;;;;;;5052647;28;20517;-77
2022/09/28 14:16:20;;;;;;;3.60;1.50;;;;;;;;;;5052842;28;20445;-76
2022/09/28 14:18:50;;;;;;;2.67;1.47;;;;;;;;;;5052463;28;20461;-77
2022/09/28 14:21:28;;;;;;;2.70;1.60;;;;;;;;;;5052019;28;20473;-77
2022/09/28 14:24:09;;;;;;;6.53;1.50;;;;;;;;;;5051004;28;21026;-77
2022/09/28 14:26:48;;;;;;;4.27;1.80;;;;;;;;;;5051799;28;20532;-77
2022/09/28 14:29:20;;;;;;;6.63;1.70;;;;;;;;;;5050969;28;20511;-77
2022/09/28 14:31:47;;;;;;;1.93;1.60;;;;;;;;;;5051654;28;20449;-77
2022/09/28 14:34:26;;;;;;;1.80;1.70;;;;;;;;;;5051497;28;20449;-77
2022/09/28 14:42:24;;;;;;;2.30;1.70;;;;;;;;;;5051227;28;20413;-78
2022/09/28 14:45:09;;;;;;;2.10;1.80;;;;;;;;;;5050816;28;20438;-77
2022/09/28 14:47:37;;;;;;;3.10;1.70;;;;;;;;;;5051408;28;20477;-77
2022/09/28 14:50:18;;;;;;;3.00;2.37;;;;;;;;;;5051325;28;20874;-76
2022/09/28 14:52:47;;;;;;;3.70;2.43;;;;;;;;;;5051142;28;20503;-77
2022/09/28 14:55:15;;;;;;;2.67;1.20;;;;;;;;;;5051213;28;20446;-77
2022/09/28 14:57:43;;;;;;;2.23;1.80;;;;;;;;;;5051430;28;20697;-77
2022/09/28 15:00:16;;;;;;;2.43;2.10;;;;;;;;;;5051692;28;20515;-78
2022/09/28 15:02:47;;;;;;;2.53;2.07;;;;;;;;;;5050672;28;20438;-77
2022/09/28 15:05:17;;;;;;;2.67;2.47;;;;;;;;;;5051102;28;20864;-77
2022/09/28 15:07:46;;;;;;;1.50;1.40;;;;;;;;;;5050650;28;20511;-77
2022/09/28 15:10:16;;;;;;;1.57;1.50;;;;;;;;;;5050854;28;20469;-77
2022/09/28 15:12:46;;;;;;;3.93;2.60;;;;;;;;;;5033976;28;20546;-77